Time;durP1;ratioP1;P1;durP2;ratioP2;P2;SDS_P1;SDS_P2;PMS_P1;PMS_P2;Temp;Humidity;BMP_temperature;BMP_pressure;BME280_temperature;BME280_humidity;BME280_pressure;Samples;Min_cycle;Max_cycle;Signal;HPM_P1;HPM_P2
2023/12/05 00:01:04;;;;;;;6.57;6.28;;;;;;;;;;6162184;28;20070;-94
2023/12/05 00:04:06;;;;;;;6.80;6.50;;;;;;;;;;6174776;28;20051;-95
2023/12/05 00:07:08;;;;;;;7.80;7.40;;;;;;;;;;6154269;28;20043;-94
2023/12/05 00:10:10;;;;;;;7.70;7.30;;;;;;;;;;6158726;28;20050;-94
2023/12/05 00:13:12;;;;;;;6.80;6.50;;;;;;;;;;6160011;28;20441;-94
2023/12/05 00:16:14;;;;;;;7.32;6.90;;;;;;;;;;6154935;28;20043;-95
2023/12/05 00:19:16;;;;;;;5.82;5.63;;;;;;;;;;6180347;28;20038;-94
2023/12/05 00:22:18;;;;;;;9.88;8.85;;;;;;;;;;6161488;28;20400;-95
2023/12/05 00:25:20;;;;;;;6.63;6.05;;;;;;;;;;6161224;28;20042;-94
2023/12/05 00:28:22;;;;;;;7.28;6.80;;;;;;;;;;6162977;28;20039;-95
2023/12/05 00:31:25;;;;;;;8.48;7.72;;;;;;;;;;6156278;28;20051;-95
2023/12/05 00:34:27;;;;;;;5.55;5.35;;;;;;;;;;6160453;28;20038;-95
2023/12/05 00:37:29;;;;;;;7.00;6.63;;;;;;;;;;6166441;28;20422;-95
2023/12/05 00:40:30;;;;;;;8.48;7.97;;;;;;;;;;6162312;28;21115;-95
2023/12/05 00:43:33;;;;;;;10.75;6.68;;;;;;;;;;6161951;28;20104;-95
2023/12/05 00:46:34;;;;;;;7.50;7.10;;;;;;;;;;6161798;28;20297;-95
2023/12/05 00:49:36;;;;;;;8.65;7.95;;;;;;;;;;6160296;28;20493;-95
2023/12/05 00:52:38;;;;;;;5.93;5.63;;;;;;;;;;6162408;28;20047;-95
2023/12/05 00:55:40;;;;;;;8.05;7.65;;;;;;;;;;6158283;28;20055;-96
2023/12/05 00:58:42;;;;;;;7.00;6.50;;;;;;;;;;6168911;28;20078;-96
2023/12/05 01:01:44;;;;;;;7.88;7.45;;;;;;;;;;6162146;28;20343;-96
2023/12/05 01:04:46;;;;;;;7.30;6.78;;;;;;;;;;6163623;28;20046;-95
2023/12/05 01:07:48;;;;;;;10.95;7.72;;;;;;;;;;6164204;28;20117;-95
2023/12/05 01:10:50;;;;;;;8.55;7.93;;;;;;;;;;6178115;28;20065;-95
2023/12/05 01:13:52;;;;;;;16.20;6.38;;;;;;;;;;6180080;28;20062;-96
2023/12/05 01:16:53;;;;;;;8.98;8.00;;;;;;;;;;6164659;28;20624;-95
2023/12/05 01:19:55;;;;;;;7.07;6.70;;;;;;;;;;6163550;28;20049;-93
2023/12/05 01:22:57;;;;;;;5.65;5.45;;;;;;;;;;6158835;28;20490;-96
2023/12/05 01:25:59;;;;;;;6.53;6.05;;;;;;;;;;6163440;28;20065;-95
2023/12/05 01:29:02;;;;;;;6.60;6.30;;;;;;;;;;6178364;28;20658;-95
2023/12/05 01:32:04;;;;;;;6.68;6.38;;;;;;;;;;6162486;28;20039;-95
2023/12/05 01:35:07;;;;;;;6.38;5.93;;;;;;;;;;6179828;28;20083;-95
2023/12/05 01:38:09;;;;;;;7.50;7.00;;;;;;;;;;6165145;28;20038;-95
2023/12/05 01:41:12;;;;;;;10.88;9.07;;;;;;;;;;6161494;28;20042;-95
2023/12/05 01:44:14;;;;;;;7.72;7.28;;;;;;;;;;6162558;28;20901;-95
2023/12/05 01:47:16;;;;;;;11.82;8.00;;;;;;;;;;6161413;28;20089;-96
2023/12/05 01:50:21;;;;;;;8.13;7.38;;;;;;;;;;6162387;28;20429;-96
2023/12/05 01:53:23;;;;;;;12.98;9.13;;;;;;;;;;6161887;28;20027;-96
2023/12/05 01:56:25;;;;;;;8.85;8.20;;;;;;;;;;6158520;28;20035;-95
2023/12/05 01:59:27;;;;;;;8.13;7.43;;;;;;;;;;6167422;28;20495;-93
2023/12/05 02:02:30;;;;;;;7.60;7.20;;;;;;;;;;6168081;28;20046;-94
2023/12/05 02:05:32;;;;;;;8.98;7.93;;;;;;;;;;6165025;28;20375;-93
2023/12/05 02:08:35;;;;;;;7.57;7.00;;;;;;;;;;6162187;28;20106;-93
2023/12/05 02:11:40;;;;;;;8.45;7.97;;;;;;;;;;6163552;28;20051;-93
2023/12/05 02:14:42;;;;;;;7.82;7.53;;;;;;;;;;6159859;28;20411;-93
2023/12/05 02:18:03;;;;;;;9.40;8.80;;;;;;;;;;6162146;28;20410;-93
2023/12/05 02:21:10;;;;;;;7.57;6.93;;;;;;;;;;6162013;28;20169;-94
2023/12/05 02:24:25;;;;;;;6.65;6.28;;;;;;;;;;6157599;28;20177;-95
2023/12/05 02:27:41;;;;;;;6.75;6.25;;;;;;;;;;6161621;28;20045;-95
2023/12/05 02:30:43;;;;;;;7.75;7.25;;;;;;;;;;6161584;28;20417;-94
2023/12/05 02:33:46;;;;;;;7.35;6.95;;;;;;;;;;6157766;28;20474;-95
2023/12/05 02:36:59;;;;;;;9.60;8.65;;;;;;;;;;6161890;28;20062;-96
2023/12/05 02:40:20;;;;;;;7.55;7.13;;;;;;;;;;6164414;28;20467;-96
2023/12/05 02:43:31;;;;;;;9.18;8.07;;;;;;;;;;6156128;28;20070;-96
2023/12/05 02:46:32;;;;;;;;;;;;;;;;;;6141095;28;20058;-96
2023/12/05 02:49:34;;;;;;;7.60;7.15;;;;;;;;;;6157502;28;19922;-96
2023/12/05 02:52:37;;;;;;;7.43;7.03;;;;;;;;;;6157158;28;20126;-95
2023/12/05 02:55:40;;;;;;;7.45;7.05;;;;;;;;;;6156651;28;20339;-96
2023/12/05 02:58:41;;;;;;;9.50;8.60;;;;;;;;;;6161869;28;20079;-95
2023/12/05 03:01:43;;;;;;;8.30;7.80;;;;;;;;;;6179723;28;20043;-95
2023/12/05 03:04:45;;;;;;;7.55;6.95;;;;;;;;;;6168806;28;20097;-96
2023/12/05 03:07:48;;;;;;;8.15;7.55;;;;;;;;;;6166336;28;20117;-96
2023/12/05 03:10:49;;;;;;;6.38;6.18;;;;;;;;;;6167112;28;20049;-95
2023/12/05 03:14:02;;;;;;;8.23;7.72;;;;;;;;;;6166683;28;20054;-96
2023/12/05 03:17:04;;;;;;;9.23;8.63;;;;;;;;;;6161001;28;20031;-95
2023/12/05 03:20:07;;;;;;;7.15;6.65;;;;;;;;;;6164069;28;20054;-96
2023/12/05 03:23:09;;;;;;;7.78;7.13;;;;;;;;;;6159088;28;20073;-96
2023/12/05 03:26:20;;;;;;;8.80;8.23;;;;;;;;;;6163704;28;20043;-96
2023/12/05 03:29:22;;;;;;;8.65;8.13;;;;;;;;;;6166529;28;20401;-96
2023/12/05 03:32:24;;;;;;;8.50;7.93;;;;;;;;;;6161035;28;20441;-96
2023/12/05 03:35:26;;;;;;;7.55;6.97;;;;;;;;;;6175245;28;20047;-96
2023/12/05 03:38:28;;;;;;;8.00;7.60;;;;;;;;;;6166702;28;20243;-96
2023/12/05 03:41:30;;;;;;;7.15;6.65;;;;;;;;;;6158634;28;20046;-96
2023/12/05 03:44:32;;;;;;;7.38;6.97;;;;;;;;;;6169614;28;20125;-96
2023/12/05 03:47:34;;;;;;;9.63;8.00;;;;;;;;;;6157912;28;20047;-96
2023/12/05 03:50:36;;;;;;;10.32;9.38;;;;;;;;;;6158248;28;20180;-96
2023/12/05 03:53:38;;;;;;;9.18;8.55;;;;;;;;;;6164309;28;20421;-96
2023/12/05 03:56:40;;;;;;;9.00;8.32;;;;;;;;;;6165592;28;20423;-96
2023/12/05 03:59:41;;;;;;;8.57;8.13;;;;;;;;;;6157753;28;20051;-96
2023/12/05 04:02:43;;;;;;;7.10;6.60;;;;;;;;;;6162080;28;20043;-96
2023/12/05 04:05:47;;;;;;;6.93;6.63;;;;;;;;;;6165395;28;20420;-96
2023/12/05 04:08:49;;;;;;;7.72;7.10;;;;;;;;;;6164198;28;20385;-96
2023/12/05 04:11:50;;;;;;;8.52;7.95;;;;;;;;;;6163559;28;20053;-95
2023/12/05 04:14:52;;;;;;;7.22;6.72;;;;;;;;;;6166685;28;20042;-95
2023/12/05 04:17:54;;;;;;;13.45;7.28;;;;;;;;;;6170336;28;20122;-96
2023/12/05 04:20:56;;;;;;;8.95;8.40;;;;;;;;;;6162913;28;20841;-95
2023/12/05 04:23:59;;;;;;;7.97;6.97;;;;;;;;;;6163854;28;20050;-95
2023/12/05 04:27:01;;;;;;;7.45;7.05;;;;;;;;;;6160908;28;20047;-95
2023/12/05 04:30:05;;;;;;;7.57;7.05;;;;;;;;;;6160670;28;20100;-96
2023/12/05 04:33:06;;;;;;;8.52;7.93;;;;;;;;;;6163059;28;20413;-95
2023/12/05 04:36:09;;;;;;;8.90;8.32;;;;;;;;;;6164755;28;20054;-95
2023/12/05 04:39:10;;;;;;;6.57;6.32;;;;;;;;;;6161316;28;20452;-94
2023/12/05 04:42:13;;;;;;;8.95;8.27;;;;;;;;;;6164026;28;20046;-95
2023/12/05 04:45:16;;;;;;;7.88;7.47;;;;;;;;;;6161114;28;20496;-96
2023/12/05 04:48:18;;;;;;;8.10;7.60;;;;;;;;;;6163225;28;20046;-96
2023/12/05 04:51:20;;;;;;;11.07;10.02;;;;;;;;;;6162854;28;20042;-96
2023/12/05 04:54:22;;;;;;;8.68;8.07;;;;;;;;;;6164575;28;20075;-96
2023/12/05 04:57:24;;;;;;;7.75;7.35;;;;;;;;;;6164741;28;20389;-95
2023/12/05 05:00:26;;;;;;;8.93;8.43;;;;;;;;;;6161836;28;20070;-96
2023/12/05 05:03:28;;;;;;;6.93;6.63;;;;;;;;;;6163199;28;20086;-95
2023/12/05 05:06:30;;;;;;;5.95;5.75;;;;;;;;;;6164828;28;20077;-95
2023/12/05 05:09:33;;;;;;;8.32;7.82;;;;;;;;;;6158218;28;20416;-95
2023/12/05 05:12:34;;;;;;;9.25;8.40;;;;;;;;;;6160790;28;20054;-95
2023/12/05 05:15:36;;;;;;;9.60;8.98;;;;;;;;;;6159680;28;20035;-95
2023/12/05 05:18:38;;;;;;;7.28;6.82;;;;;;;;;;6156892;28;20133;-94
2023/12/05 05:21:40;;;;;;;5.97;5.72;;;;;;;;;;6162623;28;20043;-93
2023/12/05 05:24:42;;;;;;;6.97;6.45;;;;;;;;;;6156856;28;20066;-94
2023/12/05 05:27:44;;;;;;;6.78;6.47;;;;;;;;;;6159708;28;20050;-94
2023/12/05 05:30:46;;;;;;;9.13;8.63;;;;;;;;;;6174126;28;20486;-94
2023/12/05 05:33:48;;;;;;;8.05;7.70;;;;;;;;;;6164731;28;20416;-94
2023/12/05 05:36:50;;;;;;;10.63;9.60;;;;;;;;;;6167779;28;20038;-94
2023/12/05 05:39:53;;;;;;;8.75;7.75;;;;;;;;;;6164014;28;20047;-94
2023/12/05 05:42:55;;;;;;;8.68;8.20;;;;;;;;;;6163715;28;20043;-95
2023/12/05 05:45:57;;;;;;;8.68;8.18;;;;;;;;;;6158180;28;20035;-95
2023/12/05 05:48:59;;;;;;;9.10;8.18;;;;;;;;;;6159959;28;20054;-95
2023/12/05 05:52:01;;;;;;;10.05;8.77;;;;;;;;;;6158175;28;20120;-94
2023/12/05 05:55:03;;;;;;;10.77;9.95;;;;;;;;;;6158763;28;20126;-94
2023/12/05 05:58:05;;;;;;;9.18;8.63;;;;;;;;;;6161022;28;20043;-94
2023/12/05 06:01:07;;;;;;;8.98;8.45;;;;;;;;;;6159007;28;20077;-94
2023/12/05 06:04:09;;;;;;;8.05;7.45;;;;;;;;;;6158617;28;20567;-95
2023/12/05 06:07:11;;;;;;;7.53;7.03;;;;;;;;;;6178397;28;20046;-94
2023/12/05 06:10:13;;;;;;;7.65;7.30;;;;;;;;;;6157217;28;20054;-94
2023/12/05 06:13:14;;;;;;;8.68;8.02;;;;;;;;;;6158714;28;20596;-94
2023/12/05 06:16:16;;;;;;;8.93;8.43;;;;;;;;;;6161032;28;20043;-94
2023/12/05 06:19:18;;;;;;;7.75;7.28;;;;;;;;;;6158411;28;20054;-94
2023/12/05 06:22:20;;;;;;;8.82;8.10;;;;;;;;;;6178246;28;20027;-94
2023/12/05 06:25:22;;;;;;;8.63;8.02;;;;;;;;;;6156817;28;20480;-93
2023/12/05 06:28:24;;;;;;;6.97;6.65;;;;;;;;;;6155234;28;20042;-94
2023/12/05 06:31:25;;;;;;;7.47;6.78;;;;;;;;;;6162925;28;20043;-93
2023/12/05 06:34:28;;;;;;;6.95;6.63;;;;;;;;;;6160972;28;20039;-94
2023/12/05 06:37:30;;;;;;;10.68;9.63;;;;;;;;;;6167427;28;20165;-94
2023/12/05 06:40:31;;;;;;;8.80;8.38;;;;;;;;;;6167453;28;20046;-94
2023/12/05 06:43:33;;;;;;;7.80;7.20;;;;;;;;;;6165984;28;20054;-94
2023/12/05 06:46:35;;;;;;;7.72;7.28;;;;;;;;;;6164429;28;20051;-94
2023/12/05 06:49:37;;;;;;;10.07;9.38;;;;;;;;;;6167954;28;20054;-94
2023/12/05 06:52:39;;;;;;;6.20;5.70;;;;;;;;;;6168293;28;20363;-94
2023/12/05 06:55:42;;;;;;;8.15;7.47;;;;;;;;;;6180302;28;20531;-93
2023/12/05 06:58:45;;;;;;;9.20;8.30;;;;;;;;;;6165361;28;20230;-94
2023/12/05 07:01:47;;;;;;;7.18;6.85;;;;;;;;;;6160888;28;20186;-94
2023/12/05 07:04:49;;;;;;;7.95;7.50;;;;;;;;;;6168048;28;20043;-94
2023/12/05 07:07:50;;;;;;;9.13;8.50;;;;;;;;;;6164364;28;20055;-94
2023/12/05 07:10:52;;;;;;;6.90;6.53;;;;;;;;;;6166296;28;20043;-94
2023/12/05 07:13:54;;;;;;;7.95;7.45;;;;;;;;;;6167127;28;20050;-94
2023/12/05 07:16:56;;;;;;;9.02;8.18;;;;;;;;;;6167069;28;20229;-94
2023/12/05 07:19:58;;;;;;;9.60;9.00;;;;;;;;;;6161911;28;20115;-94
2023/12/05 07:22:59;;;;;;;7.05;6.55;;;;;;;;;;6164415;28;20054;-94
2023/12/05 07:26:01;;;;;;;9.15;8.35;;;;;;;;;;6164245;28;20054;-94
2023/12/05 07:29:03;;;;;;;7.97;7.32;;;;;;;;;;6164708;28;20416;-94
2023/12/05 07:32:04;;;;;;;9.25;8.75;;;;;;;;;;6163204;28;20051;-93
2023/12/05 07:35:06;;;;;;;8.80;8.10;;;;;;;;;;6167465;28;20071;-94
2023/12/05 07:38:08;;;;;;;10.73;9.80;;;;;;;;;;6170882;28;20061;-94
2023/12/05 07:41:20;;;;;;;7.88;7.45;;;;;;;;;;6165162;28;20071;-93
2023/12/05 07:44:22;;;;;;;8.15;7.65;;;;;;;;;;6164074;28;20541;-93
2023/12/05 07:47:26;;;;;;;14.32;9.38;;;;;;;;;;6166511;28;20425;-93
2023/12/05 07:50:28;;;;;;;8.35;7.70;;;;;;;;;;6166367;28;20055;-93
2023/12/05 07:53:29;;;;;;;11.60;9.77;;;;;;;;;;6159992;28;20051;-93
2023/12/05 07:56:31;;;;;;;8.85;8.15;;;;;;;;;;6162803;28;20374;-92
2023/12/05 07:59:33;;;;;;;8.48;7.95;;;;;;;;;;6180854;28;20055;-93
2023/12/05 08:02:34;;;;;;;10.95;9.45;;;;;;;;;;6162167;28;20162;-92
2023/12/05 08:05:36;;;;;;;9.77;8.82;;;;;;;;;;6166334;28;20057;-92
2023/12/05 08:08:38;;;;;;;9.65;8.88;;;;;;;;;;6161874;28;20042;-92
2023/12/05 08:11:40;;;;;;;7.47;7.07;;;;;;;;;;6167820;28;20046;-91
2023/12/05 08:14:41;;;;;;;6.82;6.45;;;;;;;;;;6165467;28;20378;-91
2023/12/05 08:17:43;;;;;;;8.27;7.63;;;;;;;;;;6162687;28;20078;-91
2023/12/05 08:20:45;;;;;;;10.25;9.75;;;;;;;;;;6165052;28;20051;-90
2023/12/05 08:23:47;;;;;;;11.50;10.40;;;;;;;;;;6160566;28;20038;-88
2023/12/05 08:26:49;;;;;;;7.55;7.15;;;;;;;;;;6167614;28;20110;-88
2023/12/05 08:29:53;;;;;;;9.35;8.75;;;;;;;;;;6167389;28;20058;-88
2023/12/05 08:32:57;;;;;;;8.75;8.13;;;;;;;;;;6167591;28;20062;-88
2023/12/05 08:36:01;;;;;;;10.40;9.65;;;;;;;;;;6165046;28;20176;-88
2023/12/05 08:39:03;;;;;;;9.68;8.80;;;;;;;;;;6164654;28;20043;-88
2023/12/05 08:42:05;;;;;;;9.07;8.27;;;;;;;;;;6165847;28;20049;-88
2023/12/05 08:45:08;;;;;;;8.60;8.00;;;;;;;;;;6166237;28;20051;-88
2023/12/05 08:48:10;;;;;;;8.40;7.68;;;;;;;;;;6164563;28;20571;-89
2023/12/05 08:51:12;;;;;;;9.20;8.52;;;;;;;;;;6164706;28;20181;-88
2023/12/05 08:54:16;;;;;;;7.88;7.28;;;;;;;;;;6165622;28;20113;-88
2023/12/05 08:57:18;;;;;;;9.20;8.32;;;;;;;;;;6166128;28;20054;-88
2023/12/05 09:00:20;;;;;;;8.30;7.60;;;;;;;;;;6164063;28;20458;-87
2023/12/05 09:03:22;;;;;;;10.50;9.90;;;;;;;;;;6160667;28;20409;-88
2023/12/05 09:06:24;;;;;;;7.55;7.25;;;;;;;;;;6160092;28;20067;-88
2023/12/05 09:09:26;;;;;;;7.38;6.97;;;;;;;;;;6165542;28;20054;-87
2023/12/05 09:12:27;;;;;;;8.00;7.25;;;;;;;;;;6165968;28;20540;-87
2023/12/05 09:15:30;;;;;;;7.38;6.80;;;;;;;;;;6177248;28;20090;-87
2023/12/05 09:18:32;;;;;;;7.88;7.38;;;;;;;;;;6162487;28;20054;-87
2023/12/05 09:21:34;;;;;;;7.93;7.55;;;;;;;;;;6155409;28;20413;-88
2023/12/05 09:24:36;;;;;;;8.07;7.50;;;;;;;;;;6155305;28;20063;-88
2023/12/05 09:27:38;;;;;;;8.38;7.88;;;;;;;;;;6162901;28;20050;-88
2023/12/05 09:30:40;;;;;;;7.18;6.85;;;;;;;;;;6158170;28;20549;-87
2023/12/05 09:33:42;;;;;;;9.25;8.68;;;;;;;;;;6161916;28;20492;-87
2023/12/05 09:36:43;;;;;;;10.13;9.30;;;;;;;;;;6163078;28;20054;-87
2023/12/05 09:39:45;;;;;;;8.38;7.80;;;;;;;;;;6161042;28;20058;-87
2023/12/05 09:42:47;;;;;;;7.85;7.45;;;;;;;;;;6180470;28;20137;-87
2023/12/05 09:45:58;;;;;;;9.98;9.38;;;;;;;;;;6161477;28;20035;-87
2023/12/05 09:49:02;;;;;;;8.98;8.05;;;;;;;;;;6146790;28;20035;-87
2023/12/05 09:52:05;;;;;;;10.05;9.20;;;;;;;;;;6161901;28;20049;-87
2023/12/05 09:55:07;;;;;;;10.52;6.80;;;;;;;;;;6176864;28;20039;-88
2023/12/05 09:58:09;;;;;;;8.05;7.45;;;;;;;;;;6157098;28;20420;-88
2023/12/05 10:01:14;;;;;;;9.10;8.25;;;;;;;;;;6163276;28;20400;-87
2023/12/05 10:04:16;;;;;;;9.32;8.77;;;;;;;;;;6161468;28;20201;-87
2023/12/05 10:07:19;;;;;;;10.13;9.45;;;;;;;;;;6161564;28;20039;-86
2023/12/05 10:10:21;;;;;;;8.60;8.07;;;;;;;;;;6159532;28;20077;-87
2023/12/05 10:13:23;;;;;;;10.57;9.48;;;;;;;;;;6164315;28;20035;-87
2023/12/05 10:16:27;;;;;;;10.43;9.48;;;;;;;;;;6161365;28;20050;-87
2023/12/05 10:19:34;;;;;;;8.98;8.27;;;;;;;;;;6160335;28;20043;-88
2023/12/05 10:22:37;;;;;;;7.78;7.38;;;;;;;;;;6160535;28;20520;-88
2023/12/05 10:25:41;;;;;;;8.07;7.68;;;;;;;;;;6153177;28;20142;-88
2023/12/05 10:28:50;;;;;;;9.05;8.50;;;;;;;;;;6159110;28;20409;-88
2023/12/05 10:31:53;;;;;;;8.65;8.10;;;;;;;;;;6178186;28;20082;-88
2023/12/05 10:35:01;;;;;;;8.52;7.93;;;;;;;;;;6155759;28;20125;-88
2023/12/05 10:38:10;;;;;;;8.98;8.38;;;;;;;;;;6153066;28;20397;-88
2023/12/05 10:41:20;;;;;;;15.15;14.18;;;;;;;;;;6157789;28;20062;-88
2023/12/05 10:44:22;;;;;;;8.15;7.72;;;;;;;;;;6157051;28;20039;-89
2023/12/05 10:47:30;;;;;;;16.75;7.65;;;;;;;;;;6163624;28;20557;-89
2023/12/05 10:50:32;;;;;;;11.20;8.65;;;;;;;;;;6166139;28;20077;-89
2023/12/05 10:53:37;;;;;;;9.02;8.48;;;;;;;;;;6164277;28;20051;-89
2023/12/05 10:56:38;;;;;;;9.15;8.45;;;;;;;;;;6164547;28;20035;-89
2023/12/05 10:59:40;;;;;;;11.20;10.10;;;;;;;;;;6163691;28;20054;-89
2023/12/05 11:02:42;;;;;;;7.32;6.97;;;;;;;;;;6163907;28;20576;-89
2023/12/05 11:05:44;;;;;;;8.00;7.32;;;;;;;;;;6160444;28;20117;-89
2023/12/05 11:08:46;;;;;;;9.98;8.60;;;;;;;;;;6151192;28;20036;-89
2023/12/05 11:11:49;;;;;;;7.03;6.68;;;;;;;;;;6162977;28;20444;-89
2023/12/05 11:14:52;;;;;;;6.43;6.13;;;;;;;;;;6159832;28;20347;-89
2023/12/05 11:18:05;;;;;;;6.30;6.00;;;;;;;;;;6159205;28;20073;-90
2023/12/05 11:21:25;;;;;;;6.55;6.22;;;;;;;;;;6164032;28;20496;-90
2023/12/05 11:24:46;;;;;;;6.40;6.10;;;;;;;;;;6163399;28;20446;-89
2023/12/05 11:28:03;;;;;;;6.95;6.60;;;;;;;;;;6162589;28;20058;-90
2023/12/05 11:31:13;;;;;;;8.38;7.85;;;;;;;;;;6162044;28;20046;-89
2023/12/05 11:34:30;;;;;;;8.57;7.80;;;;;;;;;;6165798;28;20057;-90
2023/12/05 11:37:39;;;;;;;6.63;6.30;;;;;;;;;;6167967;28;20100;-90
2023/12/05 11:40:41;;;;;;;7.70;7.30;;;;;;;;;;6163877;28;20070;-89
2023/12/05 11:44:03;;;;;;;9.60;8.63;;;;;;;;;;6160165;28;20055;-90
2023/12/05 11:47:24;;;;;;;8.35;7.88;;;;;;;;;;6164619;28;20521;-90
2023/12/05 11:50:26;;;;;;;7.50;7.07;;;;;;;;;;6172875;28;20055;-90
2023/12/05 11:53:29;;;;;;;10.68;9.73;;;;;;;;;;6159361;28;20055;-90
2023/12/05 11:56:30;;;;;;;8.25;7.65;;;;;;;;;;6163492;28;20043;-90
2023/12/05 11:59:37;;;;;;;7.63;7.20;;;;;;;;;;6165218;28;20053;-89
2023/12/05 12:02:44;;;;;;;8.23;7.82;;;;;;;;;;6160098;28;20057;-90
2023/12/05 12:05:47;;;;;;;7.60;7.10;;;;;;;;;;6163765;28;20047;-90
2023/12/05 12:08:53;;;;;;;7.03;6.68;;;;;;;;;;6180721;28;20045;-90
2023/12/05 12:11:56;;;;;;;6.55;6.25;;;;;;;;;;6167335;28;20122;-90
2023/12/05 12:14:58;;;;;;;10.80;9.85;;;;;;;;;;6166561;28;20616;-90
2023/12/05 12:18:00;;;;;;;6.80;6.50;;;;;;;;;;6167694;28;20047;-90
2023/12/05 12:21:02;;;;;;;8.15;7.72;;;;;;;;;;6165107;28;20556;-90
2023/12/05 12:24:04;;;;;;;6.97;6.47;;;;;;;;;;6162270;28;20042;-90
2023/12/05 12:27:12;;;;;;;6.35;6.05;;;;;;;;;;6160300;28;20112;-90
2023/12/05 12:30:15;;;;;;;7.25;6.90;;;;;;;;;;6164754;28;20069;-91
2023/12/05 12:33:18;;;;;;;8.75;8.07;;;;;;;;;;6166435;28;20043;-90
2023/12/05 12:36:21;;;;;;;7.30;6.72;;;;;;;;;;6167108;28;20039;-90
2023/12/05 12:39:26;;;;;;;8.18;7.60;;;;;;;;;;6163722;28;20062;-91
2023/12/05 12:42:28;;;;;;;8.90;8.23;;;;;;;;;;6148999;28;20581;-91
2023/12/05 12:45:30;;;;;;;7.78;7.13;;;;;;;;;;6160577;28;20054;-90
2023/12/05 12:48:32;;;;;;;6.20;5.90;;;;;;;;;;6165267;28;20062;-90
2023/12/05 12:51:34;;;;;;;7.70;7.18;;;;;;;;;;6163598;28;20090;-90
2023/12/05 12:54:38;;;;;;;7.10;6.70;;;;;;;;;;6167877;28;20117;-90
2023/12/05 12:57:41;;;;;;;8.27;7.78;;;;;;;;;;6165562;28;20047;-90
2023/12/05 13:00:45;;;;;;;6.75;6.32;;;;;;;;;;6165546;28;20386;-90
2023/12/05 13:03:47;;;;;;;7.68;7.28;;;;;;;;;;6161695;28;20125;-90
2023/12/05 13:06:49;;;;;;;8.57;6.90;;;;;;;;;;6167040;28;20046;-90
2023/12/05 13:09:58;;;;;;;9.18;7.82;;;;;;;;;;6166306;28;20054;-89
2023/12/05 13:13:04;;;;;;;7.70;7.22;;;;;;;;;;6181000;28;20050;-90
2023/12/05 13:16:06;;;;;;;8.88;8.27;;;;;;;;;;6166568;28;20602;-90
2023/12/05 13:19:22;;;;;;;7.90;7.50;;;;;;;;;;6165520;28;20043;-90
2023/12/05 13:22:24;;;;;;;7.68;7.22;;;;;;;;;;6164506;28;20047;-90
2023/12/05 13:25:25;;;;;;;7.70;7.30;;;;;;;;;;6161873;28;20054;-90
2023/12/05 13:28:40;;;;;;;7.55;6.97;;;;;;;;;;6158939;28;20109;-90
2023/12/05 13:31:42;;;;;;;6.93;6.63;;;;;;;;;;6163428;28;20405;-90
2023/12/05 13:34:43;;;;;;;7.82;7.43;;;;;;;;;;6163471;28;20140;-89
2023/12/05 13:37:45;;;;;;;6.97;6.57;;;;;;;;;;6167792;28;20132;-89
2023/12/05 13:40:47;;;;;;;7.43;6.93;;;;;;;;;;6167290;28;20031;-89
2023/12/05 13:43:50;;;;;;;6.47;6.18;;;;;;;;;;6181198;28;20043;-89
2023/12/05 13:46:52;;;;;;;9.43;8.30;;;;;;;;;;6164937;28;20093;-89
2023/12/05 13:49:54;;;;;;;7.05;6.65;;;;;;;;;;6164155;28;20046;-88
2023/12/05 13:52:56;;;;;;;7.18;6.82;;;;;;;;;;6163502;28;20051;-89
2023/12/05 13:55:58;;;;;;;19.13;7.22;;;;;;;;;;6155563;28;20050;-89
2023/12/05 13:59:00;;;;;;;6.47;6.05;;;;;;;;;;6165483;28;20050;-89
2023/12/05 14:02:02;;;;;;;7.80;7.30;;;;;;;;;;6165239;28;20080;-89
2023/12/05 14:05:05;;;;;;;7.43;7.00;;;;;;;;;;6165054;28;20133;-88
2023/12/05 14:08:07;;;;;;;9.68;8.13;;;;;;;;;;6159484;28;20047;-88
2023/12/05 14:11:09;;;;;;;6.22;6.00;;;;;;;;;;6159661;28;20046;-88
2023/12/05 14:14:12;;;;;;;8.23;7.68;;;;;;;;;;6161729;28;20533;-86
2023/12/05 14:17:15;;;;;;;8.32;7.55;;;;;;;;;;6160466;28;20746;-87
2023/12/05 14:20:19;;;;;;;8.20;7.70;;;;;;;;;;6164739;28;20169;-87
2023/12/05 14:23:21;;;;;;;6.68;6.32;;;;;;;;;;6160755;28;20065;-86
2023/12/05 14:26:26;;;;;;;6.40;6.10;;;;;;;;;;6162188;28;20252;-87
2023/12/05 14:29:28;;;;;;;7.15;6.68;;;;;;;;;;6161588;28;20129;-88
2023/12/05 14:32:29;;;;;;;6.97;6.57;;;;;;;;;;6163103;28;20437;-88
2023/12/05 14:35:31;;;;;;;8.32;7.60;;;;;;;;;;6167797;28;20493;-88
2023/12/05 14:38:33;;;;;;;6.55;6.18;;;;;;;;;;6162791;28;20733;-88
2023/12/05 14:41:35;;;;;;;8.10;7.38;;;;;;;;;;6161193;28;20560;-89
2023/12/05 14:44:37;;;;;;;7.63;7.20;;;;;;;;;;6159922;28;20039;-89
2023/12/05 14:47:39;;;;;;;6.22;5.93;;;;;;;;;;6163643;28;20481;-89
2023/12/05 14:50:41;;;;;;;7.55;7.05;;;;;;;;;;6158618;28;20171;-88
2023/12/05 14:53:44;;;;;;;7.65;7.22;;;;;;;;;;6162679;28;20062;-88
2023/12/05 14:56:46;;;;;;;10.52;8.20;;;;;;;;;;6158538;28;20105;-89
2023/12/05 14:59:49;;;;;;;8.07;7.57;;;;;;;;;;6164299;28;20912;-88
2023/12/05 15:02:51;;;;;;;5.97;5.47;;;;;;;;;;6167670;28;20042;-88
2023/12/05 15:05:53;;;;;;;6.63;6.32;;;;;;;;;;6171651;28;20039;-88
2023/12/05 15:08:55;;;;;;;8.15;7.43;;;;;;;;;;6165174;28;20047;-88
2023/12/05 15:11:58;;;;;;;6.47;6.18;;;;;;;;;;6161931;28;20057;-89
2023/12/05 15:15:00;;;;;;;7.28;6.80;;;;;;;;;;6167310;28;20050;-89
2023/12/05 15:18:02;;;;;;;7.28;6.63;;;;;;;;;;6167887;28;20042;-88
2023/12/05 15:21:04;;;;;;;6.93;6.60;;;;;;;;;;6165777;28;20464;-89
2023/12/05 15:24:06;;;;;;;6.15;5.85;;;;;;;;;;6164264;28;20051;-89
2023/12/05 15:27:07;;;;;;;5.85;5.65;;;;;;;;;;6166088;28;20051;-89
2023/12/05 15:30:09;;;;;;;8.25;7.82;;;;;;;;;;6163763;28;20035;-89
2023/12/05 15:33:12;;;;;;;6.68;6.38;;;;;;;;;;6167100;28;20519;-89
2023/12/05 15:36:15;;;;;;;6.55;6.07;;;;;;;;;;6169229;28;20122;-89
2023/12/05 15:39:16;;;;;;;6.45;6.05;;;;;;;;;;6154576;28;20055;-89
2023/12/05 15:42:18;;;;;;;8.85;6.38;;;;;;;;;;6165368;28;20050;-89
2023/12/05 15:45:20;;;;;;;7.00;6.57;;;;;;;;;;6160774;28;20051;-89
2023/12/05 15:48:22;;;;;;;6.95;6.55;;;;;;;;;;6161395;28;20562;-89
2023/12/05 15:51:44;;;;;;;6.97;6.63;;;;;;;;;;6165348;28;20043;-89
2023/12/05 15:54:46;;;;;;;7.50;7.10;;;;;;;;;;6164509;28;20043;-89
2023/12/05 15:57:50;;;;;;;5.53;5.32;;;;;;;;;;6167206;28;20035;-89
2023/12/05 16:00:52;;;;;;;5.65;5.45;;;;;;;;;;6165362;28;20552;-89
2023/12/05 16:04:00;;;;;;;6.47;6.18;;;;;;;;;;6163314;28;20047;-89
2023/12/05 16:07:04;;;;;;;6.05;5.75;;;;;;;;;;6166436;28;20122;-89
2023/12/05 16:10:06;;;;;;;6.72;6.40;;;;;;;;;;6164945;28;20543;-89
2023/12/05 16:13:08;;;;;;;5.55;5.35;;;;;;;;;;6166806;28;20497;-91
2023/12/05 16:16:11;;;;;;;6.28;5.97;;;;;;;;;;6165313;28;20042;-91
2023/12/05 16:19:12;;;;;;;6.30;6.00;;;;;;;;;;6165695;28;20040;-91
2023/12/05 16:22:14;;;;;;;16.45;7.28;;;;;;;;;;6165436;28;20396;-92
2023/12/05 16:25:16;;;;;;;8.63;8.02;;;;;;;;;;6157849;28;20121;-92
2023/12/05 16:28:18;;;;;;;6.20;5.90;;;;;;;;;;6182169;28;20521;-91
2023/12/05 16:31:19;;;;;;;6.88;6.57;;;;;;;;;;6167741;28;20412;-91
2023/12/05 16:34:21;;;;;;;6.93;6.43;;;;;;;;;;6173774;28;20053;-92
2023/12/05 16:37:23;;;;;;;7.35;6.95;;;;;;;;;;6161673;28;20046;-92
2023/12/05 16:40:25;;;;;;;6.30;6.00;;;;;;;;;;6158905;28;20046;-91
2023/12/05 16:43:27;;;;;;;6.75;6.43;;;;;;;;;;6165621;28;20066;-91
2023/12/05 16:46:28;;;;;;;5.97;5.78;;;;;;;;;;6163593;28;20501;-91
2023/12/05 16:49:30;;;;;;;6.10;5.80;;;;;;;;;;6166801;28;20039;-90
2023/12/05 16:52:32;;;;;;;6.28;5.90;;;;;;;;;;6167255;28;20082;-91
2023/12/05 16:55:34;;;;;;;5.68;5.25;;;;;;;;;;6160828;28;20983;-91
2023/12/05 16:58:35;;;;;;;6.05;5.75;;;;;;;;;;6161932;28;20051;-91
2023/12/05 17:01:37;;;;;;;10.57;10.05;;;;;;;;;;6153453;28;20035;-91
2023/12/05 17:04:39;;;;;;;8.45;6.40;;;;;;;;;;6162577;28;20225;-91
2023/12/05 17:07:41;;;;;;;6.82;6.53;;;;;;;;;;6161199;28;20126;-91
2023/12/05 17:10:42;;;;;;;6.85;6.50;;;;;;;;;;6162095;28;20085;-91
2023/12/05 17:13:44;;;;;;;6.43;6.13;;;;;;;;;;6160115;28;20043;-92
2023/12/05 17:16:46;;;;;;;6.28;5.88;;;;;;;;;;6164076;28;20049;-92
2023/12/05 17:19:48;;;;;;;5.82;5.55;;;;;;;;;;6163662;28;20074;-91
2023/12/05 17:22:50;;;;;;;5.95;5.70;;;;;;;;;;6162069;28;20050;-91
2023/12/05 17:25:53;;;;;;;7.00;6.70;;;;;;;;;;6159866;28;20108;-91
2023/12/05 17:29:00;;;;;;;6.80;6.40;;;;;;;;;;6160283;28;20038;-91
2023/12/05 17:32:02;;;;;;;13.02;5.80;;;;;;;;;;6165190;28;20405;-91
2023/12/05 17:35:05;;;;;;;6.00;5.70;;;;;;;;;;6165641;28;20050;-91
2023/12/05 17:38:07;;;;;;;7.35;6.85;;;;;;;;;;6149026;28;20043;-91
2023/12/05 17:41:09;;;;;;;5.55;5.35;;;;;;;;;;6163514;28;20035;-92
2023/12/05 17:44:10;;;;;;;6.22;6.03;;;;;;;;;;6163490;28;20545;-91
2023/12/05 17:47:12;;;;;;;6.82;6.47;;;;;;;;;;6162057;28;20042;-91
2023/12/05 17:50:14;;;;;;;7.30;6.85;;;;;;;;;;6157811;28;20071;-91
2023/12/05 17:53:15;;;;;;;6.53;6.22;;;;;;;;;;6173393;28;20038;-92
2023/12/05 17:56:17;;;;;;;7.20;6.80;;;;;;;;;;6159685;28;20043;-91
2023/12/05 17:59:23;;;;;;;5.07;4.90;;;;;;;;;;6161320;28;20421;-92
2023/12/05 18:02:25;;;;;;;5.70;5.40;;;;;;;;;;6164076;28;20074;-92
2023/12/05 18:05:36;;;;;;;6.28;6.05;;;;;;;;;;6162960;28;20050;-92
2023/12/05 18:08:38;;;;;;;6.55;6.05;;;;;;;;;;6161734;28;20479;-92
2023/12/05 18:11:40;;;;;;;7.07;6.72;;;;;;;;;;6157856;28;20095;-92
2023/12/05 18:14:41;;;;;;;6.32;6.05;;;;;;;;;;6176027;28;20078;-92